createdAt,value
2019-02-06T21:23:52.870Z,100393.62
2019-02-06T21:26:25.649Z,100399.03
2019-02-06T21:28:56.110Z,100388.72
2019-02-06T21:31:28.353Z,100374.91
2019-02-06T21:33:59.871Z,100371.91
2019-02-06T21:36:36.117Z,100364.88
2019-02-06T21:39:09.476Z,100346.73
2019-02-06T21:41:40.977Z,100335.59
2019-02-06T21:44:11.515Z,100320.97
2019-02-06T21:46:42.189Z,100314.47
2019-02-06T21:49:12.375Z,100309.31
2019-02-06T21:51:44.038Z,100294.97
2019-02-06T21:54:14.209Z,100284.69
2019-02-06T21:56:45.215Z,100270.31
2019-02-06T21:59:14.480Z,100265.17
2019-02-06T22:01:46.269Z,100254.85
2019-02-06T22:04:16.357Z,100252.16
2019-02-06T22:06:46.351Z,100234.83
2019-02-06T22:09:21.873Z,100226.41
2019-02-06T22:11:52.040Z,100231.83
2019-02-06T22:14:21.768Z,100229.41
2019-02-06T22:16:53.966Z,100264.08
2019-02-06T22:19:28.361Z,100259.47
2019-02-06T22:21:58.374Z,100225.88
2019-02-06T22:24:34.199Z,100237.00
2019-02-06T22:27:05.987Z,100232.92
2019-02-06T22:29:38.255Z,100220.19
2019-02-06T22:32:12.963Z,100226.66
2019-02-06T22:34:46.118Z,100227.77
2019-02-06T22:37:15.515Z,100221.24
2019-02-06T22:39:48.885Z,100221.80
2019-02-06T22:42:21.818Z,100214.76
2019-02-06T22:44:52.917Z,100209.34
2019-02-06T22:47:22.796Z,100193.91
2019-02-06T22:49:57.604Z,100182.52
2019-02-06T22:52:28.625Z,100183.06
2019-02-06T22:55:01.495Z,100174.94
2019-02-06T22:57:33.312Z,100170.59
2019-02-06T23:00:04.407Z,100154.89
2019-02-06T23:02:36.882Z,100140.27
2019-02-06T23:05:12.403Z,100142.44
2019-02-06T23:07:43.944Z,100139.98
2019-02-06T23:10:17.568Z,100141.87
2019-02-06T23:12:47.770Z,100138.07
2019-02-06T23:15:19.408Z,100139.17
2019-02-06T23:17:49.901Z,100132.65
2019-02-06T23:20:21.164Z,100121.27
2019-02-06T23:22:54.729Z,100115.59
2019-02-06T23:25:26.998Z,100110.74
2019-02-06T23:27:59.310Z,100096.66
2019-02-06T23:30:32.954Z,100101.53
2019-02-06T23:33:02.960Z,100087.42
2019-02-06T23:35:34.679Z,100093.38
2019-02-06T23:38:08.089Z,100094.75
2019-02-06T23:40:42.788Z,100098.78
2019-02-06T23:43:11.907Z,100108.27
2019-02-06T23:45:47.397Z,100103.64
2019-02-06T23:48:18.237Z,100109.05
2019-02-06T23:50:53.074Z,100104.98
2019-02-06T23:53:23.517Z,100098.73
2019-02-06T23:55:53.817Z,100091.70
2019-02-06T23:58:31.370Z,100104.72
